sensor_id;sensor_type;location;lat;lon;timestamp;P1;durP1;ratioP1;P2;durP2;ratioP2
2390;SDS011;22957;50.824;4.360;2023-11-19T00:02:15;4.90;;;2.20;;
2390;SDS011;22957;50.824;4.360;2023-11-19T00:04:41;6.87;;;1.97;;
2390;SDS011;22957;50.824;4.360;2023-11-19T00:07:07;5.53;;;2.07;;
2390;SDS011;22957;50.824;4.360;2023-11-19T00:09:36;4.03;;;1.57;;
2390;SDS011;22957;50.824;4.360;2023-11-19T00:12:03;7.50;;;2.10;;
2390;SDS011;22957;50.824;4.360;2023-11-19T00:14:29;6.17;;;1.80;;
2390;SDS011;22957;50.824;4.360;2023-11-19T00:16:55;3.90;;;1.97;;
2390;SDS011;22957;50.824;4.360;2023-11-19T00:19:21;3.23;;;1.80;;
2390;SDS011;22957;50.824;4.360;2023-11-19T00:21:47;5.47;;;1.70;;
2390;SDS011;22957;50.824;4.360;2023-11-19T00:24:12;5.47;;;1.33;;
2390;SDS011;22957;50.824;4.360;2023-11-19T00:26:41;7.77;;;1.97;;
2390;SDS011;22957;50.824;4.360;2023-11-19T00:29:06;5.47;;;1.80;;
2390;SDS011;22957;50.824;4.360;2023-11-19T00:31:32;3.30;;;1.47;;
2390;SDS011;22957;50.824;4.360;2023-11-19T00:33:58;5.03;;;1.80;;
2390;SDS011;22957;50.824;4.360;2023-11-19T00:36:23;8.17;;;1.70;;
2390;SDS011;22957;50.824;4.360;2023-11-19T00:38:49;8.03;;;2.40;;
2390;SDS011;22957;50.824;4.360;2023-11-19T00:41:15;8.80;;;1.97;;
2390;SDS011;22957;50.824;4.360;2023-11-19T00:43:41;7.83;;;2.00;;
2390;SDS011;22957;50.824;4.360;2023-11-19T00:46:07;6.93;;;1.90;;
2390;SDS011;22957;50.824;4.360;2023-11-19T00:48:33;12.90;;;2.50;;
2390;SDS011;22957;50.824;4.360;2023-11-19T00:50:59;9.67;;;2.07;;
2390;SDS011;22957;50.824;4.360;2023-11-19T00:53:24;9.10;;;1.83;;
2390;SDS011;22957;50.824;4.360;2023-11-19T00:55:50;7.13;;;1.37;;
2390;SDS011;22957;50.824;4.360;2023-11-19T00:58:15;3.83;;;1.73;;
2390;SDS011;22957;50.824;4.360;2023-11-19T01:00:43;7.40;;;2.17;;
2390;SDS011;22957;50.824;4.360;2023-11-19T01:03:08;10.00;;;2.03;;
2390;SDS011;22957;50.824;4.360;2023-11-19T01:05:34;8.40;;;2.17;;
2390;SDS011;22957;50.824;4.360;2023-11-19T01:07:59;12.30;;;2.57;;
2390;SDS011;22957;50.824;4.360;2023-11-19T01:10:25;11.10;;;3.07;;
2390;SDS011;22957;50.824;4.360;2023-11-19T01:12:51;9.87;;;2.00;;
2390;SDS011;22957;50.824;4.360;2023-11-19T01:15:17;12.70;;;1.87;;
2390;SDS011;22957;50.824;4.360;2023-11-19T01:17:44;11.60;;;2.17;;
2390;SDS011;22957;50.824;4.360;2023-11-19T01:20:10;11.57;;;2.00;;
2390;SDS011;22957;50.824;4.360;2023-11-19T01:22:38;11.00;;;2.40;;
2390;SDS011;22957;50.824;4.360;2023-11-19T01:25:04;15.83;;;2.17;;
2390;SDS011;22957;50.824;4.360;2023-11-19T01:27:30;6.47;;;1.83;;
2390;SDS011;22957;50.824;4.360;2023-11-19T01:29:56;13.87;;;3.03;;
2390;SDS011;22957;50.824;4.360;2023-11-19T01:32:21;11.80;;;2.50;;
2390;SDS011;22957;50.824;4.360;2023-11-19T01:34:49;13.03;;;2.03;;
2390;SDS011;22957;50.824;4.360;2023-11-19T01:37:14;9.80;;;3.27;;
2390;SDS011;22957;50.824;4.360;2023-11-19T01:39:40;13.33;;;2.43;;
2390;SDS011;22957;50.824;4.360;2023-11-19T01:42:09;14.23;;;3.10;;
2390;SDS011;22957;50.824;4.360;2023-11-19T01:44:34;3.73;;;2.10;;
2390;SDS011;22957;50.824;4.360;2023-11-19T01:47:00;11.30;;;1.93;;
2390;SDS011;22957;50.824;4.360;2023-11-19T01:49:26;8.60;;;2.20;;
2390;SDS011;22957;50.824;4.360;2023-11-19T01:51:52;12.47;;;3.17;;
2390;SDS011;22957;50.824;4.360;2023-11-19T01:54:18;18.50;;;2.33;;
2390;SDS011;22957;50.824;4.360;2023-11-19T01:56:43;7.70;;;2.53;;
2390;SDS011;22957;50.824;4.360;2023-11-19T01:59:09;14.63;;;3.30;;
2390;SDS011;22957;50.824;4.360;2023-11-19T02:01:38;11.90;;;2.20;;
2390;SDS011;22957;50.824;4.360;2023-11-19T02:04:05;17.00;;;2.50;;
2390;SDS011;22957;50.824;4.360;2023-11-19T02:06:32;14.70;;;3.47;;
2390;SDS011;22957;50.824;4.360;2023-11-19T02:08:59;15.33;;;3.00;;
2390;SDS011;22957;50.824;4.360;2023-11-19T02:11:25;16.33;;;2.90;;
2390;SDS011;22957;50.824;4.360;2023-11-19T02:13:54;12.63;;;2.70;;
2390;SDS011;22957;50.824;4.360;2023-11-19T02:16:20;16.30;;;3.07;;
2390;SDS011;22957;50.824;4.360;2023-11-19T02:18:46;16.17;;;4.20;;
2390;SDS011;22957;50.824;4.360;2023-11-19T02:21:13;20.83;;;3.50;;
2390;SDS011;22957;50.824;4.360;2023-11-19T02:23:40;10.70;;;2.90;;
2390;SDS011;22957;50.824;4.360;2023-11-19T02:28:43;16.20;;;2.83;;
2390;SDS011;22957;50.824;4.360;2023-11-19T02:31:09;11.60;;;3.00;;
2390;SDS011;22957;50.824;4.360;2023-11-19T02:33:38;17.30;;;3.73;;
2390;SDS011;22957;50.824;4.360;2023-11-19T02:36:04;11.50;;;2.93;;
2390;SDS011;22957;50.824;4.360;2023-11-19T02:38:32;18.03;;;3.40;;
2390;SDS011;22957;50.824;4.360;2023-11-19T02:40:58;13.87;;;2.93;;
2390;SDS011;22957;50.824;4.360;2023-11-19T02:43:24;14.07;;;2.80;;
2390;SDS011;22957;50.824;4.360;2023-11-19T02:45:50;15.27;;;2.73;;
2390;SDS011;22957;50.824;4.360;2023-11-19T02:48:15;19.23;;;3.33;;
2390;SDS011;22957;50.824;4.360;2023-11-19T02:50:41;8.37;;;2.17;;
2390;SDS011;22957;50.824;4.360;2023-11-19T02:53:07;15.67;;;2.60;;
2390;SDS011;22957;50.824;4.360;2023-11-19T02:55:33;14.93;;;2.93;;
2390;SDS011;22957;50.824;4.360;2023-11-19T02:58:02;15.10;;;3.23;;
2390;SDS011;22957;50.824;4.360;2023-11-19T03:00:34;11.33;;;2.50;;
2390;SDS011;22957;50.824;4.360;2023-11-19T03:03:12;10.73;;;2.87;;
2390;SDS011;22957;50.824;4.360;2023-11-19T03:05:48;14.60;;;3.10;;
2390;SDS011;22957;50.824;4.360;2023-11-19T03:08:15;18.23;;;2.73;;
2390;SDS011;22957;50.824;4.360;2023-11-19T03:10:41;8.53;;;2.57;;
2390;SDS011;22957;50.824;4.360;2023-11-19T03:13:10;11.53;;;2.77;;
2390;SDS011;22957;50.824;4.360;2023-11-19T03:15:41;24.50;;;3.23;;
2390;SDS011;22957;50.824;4.360;2023-11-19T03:18:07;14.50;;;3.30;;
2390;SDS011;22957;50.824;4.360;2023-11-19T03:20:32;14.77;;;3.50;;
2390;SDS011;22957;50.824;4.360;2023-11-19T03:22:58;12.97;;;2.87;;
2390;SDS011;22957;50.824;4.360;2023-11-19T03:25:25;16.50;;;3.00;;
2390;SDS011;22957;50.824;4.360;2023-11-19T03:28:01;8.97;;;2.00;;
2390;SDS011;22957;50.824;4.360;2023-11-19T03:30:28;15.40;;;3.40;;
2390;SDS011;22957;50.824;4.360;2023-11-19T03:32:57;15.77;;;2.60;;
2390;SDS011;22957;50.824;4.360;2023-11-19T03:35:23;17.70;;;3.23;;
2390;SDS011;22957;50.824;4.360;2023-11-19T03:37:49;12.33;;;2.43;;
2390;SDS011;22957;50.824;4.360;2023-11-19T03:40:16;24.97;;;3.40;;
2390;SDS011;22957;50.824;4.360;2023-11-19T03:42:42;15.40;;;3.47;;
2390;SDS011;22957;50.824;4.360;2023-11-19T03:45:08;18.83;;;3.50;;
2390;SDS011;22957;50.824;4.360;2023-11-19T03:47:34;17.10;;;2.80;;
2390;SDS011;22957;50.824;4.360;2023-11-19T03:50:00;17.53;;;4.33;;
2390;SDS011;22957;50.824;4.360;2023-11-19T03:52:27;14.20;;;3.57;;
2390;SDS011;22957;50.824;4.360;2023-11-19T03:54:53;15.83;;;3.33;;
2390;SDS011;22957;50.824;4.360;2023-11-19T03:57:20;12.27;;;2.50;;
2390;SDS011;22957;50.824;4.360;2023-11-19T03:59:46;14.73;;;3.87;;
2390;SDS011;22957;50.824;4.360;2023-11-19T04:02:11;25.67;;;4.10;;
2390;SDS011;22957;50.824;4.360;2023-11-19T04:04:37;18.53;;;2.70;;
2390;SDS011;22957;50.824;4.360;2023-11-19T04:07:04;13.93;;;3.17;;
2390;SDS011;22957;50.824;4.360;2023-11-19T04:09:30;26.13;;;4.73;;
2390;SDS011;22957;50.824;4.360;2023-11-19T04:11:58;16.73;;;3.97;;
2390;SDS011;22957;50.824;4.360;2023-11-19T04:14:25;12.93;;;3.50;;
2390;SDS011;22957;50.824;4.360;2023-11-19T04:16:51;10.57;;;3.23;;
2390;SDS011;22957;50.824;4.360;2023-11-19T04:19:17;19.83;;;4.30;;
2390;SDS011;22957;50.824;4.360;2023-11-19T04:21:43;29.33;;;4.93;;
2390;SDS011;22957;50.824;4.360;2023-11-19T04:24:09;10.77;;;2.80;;
2390;SDS011;22957;50.824;4.360;2023-11-19T04:26:43;17.37;;;3.70;;
2390;SDS011;22957;50.824;4.360;2023-11-19T04:29:13;25.23;;;4.03;;
2390;SDS011;22957;50.824;4.360;2023-11-19T04:31:40;17.13;;;3.80;;
2390;SDS011;22957;50.824;4.360;2023-11-19T04:34:06;26.80;;;4.30;;
2390;SDS011;22957;50.824;4.360;2023-11-19T04:36:33;11.00;;;3.80;;
2390;SDS011;22957;50.824;4.360;2023-11-19T04:38:59;32.47;;;5.47;;
2390;SDS011;22957;50.824;4.360;2023-11-19T04:41:25;18.83;;;4.30;;
2390;SDS011;22957;50.824;4.360;2023-11-19T04:43:55;19.53;;;3.83;;
2390;SDS011;22957;50.824;4.360;2023-11-19T04:46:20;29.43;;;5.63;;
2390;SDS011;22957;50.824;4.360;2023-11-19T04:48:46;25.40;;;5.47;;
2390;SDS011;22957;50.824;4.360;2023-11-19T04:51:12;32.60;;;5.30;;
2390;SDS011;22957;50.824;4.360;2023-11-19T04:53:38;22.80;;;3.77;;
2390;SDS011;22957;50.824;4.360;2023-11-19T04:56:10;32.93;;;6.97;;
2390;SDS011;22957;50.824;4.360;2023-11-19T04:58:36;23.23;;;5.23;;
2390;SDS011;22957;50.824;4.360;2023-11-19T05:01:02;15.10;;;5.70;;
2390;SDS011;22957;50.824;4.360;2023-11-19T05:03:28;20.80;;;5.47;;
2390;SDS011;22957;50.824;4.360;2023-11-19T05:05:55;32.30;;;6.80;;
2390;SDS011;22957;50.824;4.360;2023-11-19T05:08:20;46.90;;;28.33;;
2390;SDS011;22957;50.824;4.360;2023-11-19T05:10:46;26.47;;;5.80;;
2390;SDS011;22957;50.824;4.360;2023-11-19T05:13:11;15.33;;;6.73;;
2390;SDS011;22957;50.824;4.360;2023-11-19T05:15:37;26.30;;;5.70;;
2390;SDS011;22957;50.824;4.360;2023-11-19T05:18:03;19.73;;;5.70;;
2390;SDS011;22957;50.824;4.360;2023-11-19T05:20:29;19.83;;;4.87;;
2390;SDS011;22957;50.824;4.360;2023-11-19T05:22:55;14.97;;;3.80;;
2390;SDS011;22957;50.824;4.360;2023-11-19T05:25:21;28.60;;;5.23;;
2390;SDS011;22957;50.824;4.360;2023-11-19T05:27:46;22.07;;;4.00;;
2390;SDS011;22957;50.824;4.360;2023-11-19T05:30:12;26.07;;;5.20;;
2390;SDS011;22957;50.824;4.360;2023-11-19T05:32:38;20.97;;;5.20;;
2390;SDS011;22957;50.824;4.360;2023-11-19T05:35:03;30.37;;;5.63;;
2390;SDS011;22957;50.824;4.360;2023-11-19T05:37:29;24.67;;;5.70;;
2390;SDS011;22957;50.824;4.360;2023-11-19T05:39:55;23.60;;;7.40;;
2390;SDS011;22957;50.824;4.360;2023-11-19T05:42:20;29.57;;;4.53;;
2390;SDS011;22957;50.824;4.360;2023-11-19T05:44:46;20.10;;;4.90;;
2390;SDS011;22957;50.824;4.360;2023-11-19T05:47:12;25.80;;;5.27;;
2390;SDS011;22957;50.824;4.360;2023-11-19T05:49:37;31.10;;;6.20;;
2390;SDS011;22957;50.824;4.360;2023-11-19T05:52:03;20.83;;;4.47;;
2390;SDS011;22957;50.824;4.360;2023-11-19T05:54:32;23.40;;;5.67;;
2390;SDS011;22957;50.824;4.360;2023-11-19T05:57:02;32.37;;;6.23;;
2390;SDS011;22957;50.824;4.360;2023-11-19T05:59:29;25.27;;;4.87;;
2390;SDS011;22957;50.824;4.360;2023-11-19T06:01:54;25.70;;;4.10;;
2390;SDS011;22957;50.824;4.360;2023-11-19T06:04:22;24.70;;;6.33;;
2390;SDS011;22957;50.824;4.360;2023-11-19T06:06:47;33.97;;;5.50;;
2390;SDS011;22957;50.824;4.360;2023-11-19T06:09:13;21.07;;;4.17;;
2390;SDS011;22957;50.824;4.360;2023-11-19T06:11:39;28.13;;;5.50;;
2390;SDS011;22957;50.824;4.360;2023-11-19T06:14:05;29.87;;;4.63;;
2390;SDS011;22957;50.824;4.360;2023-11-19T06:16:32;29.57;;;5.33;;
2390;SDS011;22957;50.824;4.360;2023-11-19T06:18:57;24.93;;;4.23;;
2390;SDS011;22957;50.824;4.360;2023-11-19T06:21:23;26.73;;;4.40;;
2390;SDS011;22957;50.824;4.360;2023-11-19T06:23:49;25.67;;;4.93;;
2390;SDS011;22957;50.824;4.360;2023-11-19T06:26:17;26.10;;;3.97;;
2390;SDS011;22957;50.824;4.360;2023-11-19T06:28:43;26.70;;;4.07;;
2390;SDS011;22957;50.824;4.360;2023-11-19T06:31:09;26.63;;;5.23;;
2390;SDS011;22957;50.824;4.360;2023-11-19T06:33:34;20.50;;;4.00;;
2390;SDS011;22957;50.824;4.360;2023-11-19T06:36:00;29.53;;;4.73;;
2390;SDS011;22957;50.824;4.360;2023-11-19T06:38:25;30.20;;;6.17;;
2390;SDS011;22957;50.824;4.360;2023-11-19T06:40:51;20.60;;;4.60;;
2390;SDS011;22957;50.824;4.360;2023-11-19T06:43:16;25.10;;;4.90;;
2390;SDS011;22957;50.824;4.360;2023-11-19T06:45:42;22.10;;;5.07;;
2390;SDS011;22957;50.824;4.360;2023-11-19T06:48:08;18.73;;;5.47;;
2390;SDS011;22957;50.824;4.360;2023-11-19T06:50:34;26.50;;;4.73;;
2390;SDS011;22957;50.824;4.360;2023-11-19T06:52:59;26.17;;;4.80;;
2390;SDS011;22957;50.824;4.360;2023-11-19T06:55:26;32.60;;;4.37;;
2390;SDS011;22957;50.824;4.360;2023-11-19T06:57:52;25.10;;;4.23;;
2390;SDS011;22957;50.824;4.360;2023-11-19T07:00:17;28.77;;;5.07;;
2390;SDS011;22957;50.824;4.360;2023-11-19T07:02:43;23.30;;;4.03;;
2390;SDS011;22957;50.824;4.360;2023-11-19T07:05:09;31.23;;;4.53;;
2390;SDS011;22957;50.824;4.360;2023-11-19T07:07:37;32.60;;;4.87;;
2390;SDS011;22957;50.824;4.360;2023-11-19T07:10:02;32.40;;;4.90;;
2390;SDS011;22957;50.824;4.360;2023-11-19T07:12:29;28.43;;;3.87;;
2390;SDS011;22957;50.824;4.360;2023-11-19T07:14:55;23.93;;;3.80;;
2390;SDS011;22957;50.824;4.360;2023-11-19T07:17:20;18.80;;;4.00;;
2390;SDS011;22957;50.824;4.360;2023-11-19T07:19:46;30.50;;;4.63;;
2390;SDS011;22957;50.824;4.360;2023-11-19T07:22:14;21.97;;;3.73;;
2390;SDS011;22957;50.824;4.360;2023-11-19T07:24:40;26.50;;;4.43;;
2390;SDS011;22957;50.824;4.360;2023-11-19T07:27:06;27.53;;;3.60;;
2390;SDS011;22957;50.824;4.360;2023-11-19T07:29:33;20.57;;;3.30;;
2390;SDS011;22957;50.824;4.360;2023-11-19T07:31:59;24.47;;;6.00;;
2390;SDS011;22957;50.824;4.360;2023-11-19T07:34:27;26.20;;;5.47;;
2390;SDS011;22957;50.824;4.360;2023-11-19T07:36:52;25.87;;;4.80;;
2390;SDS011;22957;50.824;4.360;2023-11-19T07:39:18;32.50;;;5.23;;
2390;SDS011;22957;50.824;4.360;2023-11-19T07:41:45;25.87;;;6.87;;
2390;SDS011;22957;50.824;4.360;2023-11-19T07:44:11;28.10;;;4.90;;
2390;SDS011;22957;50.824;4.360;2023-11-19T07:46:36;16.83;;;3.90;;
2390;SDS011;22957;50.824;4.360;2023-11-19T07:49:02;30.97;;;4.23;;
2390;SDS011;22957;50.824;4.360;2023-11-19T07:51:28;22.77;;;5.10;;
2390;SDS011;22957;50.824;4.360;2023-11-19T07:53:53;26.03;;;4.50;;
2390;SDS011;22957;50.824;4.360;2023-11-19T07:56:19;32.37;;;6.30;;
2390;SDS011;22957;50.824;4.360;2023-11-19T07:58:44;26.40;;;5.00;;
2390;SDS011;22957;50.824;4.360;2023-11-19T08:01:10;21.03;;;4.77;;
2390;SDS011;22957;50.824;4.360;2023-11-19T08:03:35;18.03;;;4.30;;
2390;SDS011;22957;50.824;4.360;2023-11-19T08:06:02;26.83;;;4.57;;
2390;SDS011;22957;50.824;4.360;2023-11-19T08:08:28;22.53;;;4.90;;
2390;SDS011;22957;50.824;4.360;2023-11-19T08:10:55;34.20;;;4.30;;
2390;SDS011;22957;50.824;4.360;2023-11-19T08:13:21;21.47;;;3.87;;
2390;SDS011;22957;50.824;4.360;2023-11-19T08:15:48;29.10;;;4.80;;
2390;SDS011;22957;50.824;4.360;2023-11-19T08:18:14;25.03;;;5.47;;
2390;SDS011;22957;50.824;4.360;2023-11-19T08:20:39;24.30;;;5.77;;
2390;SDS011;22957;50.824;4.360;2023-11-19T08:23:06;23.10;;;5.40;;
2390;SDS011;22957;50.824;4.360;2023-11-19T08:25:32;23.97;;;5.60;;
2390;SDS011;22957;50.824;4.360;2023-11-19T08:27:58;29.17;;;4.53;;
2390;SDS011;22957;50.824;4.360;2023-11-19T08:30:25;31.57;;;6.50;;
2390;SDS011;22957;50.824;4.360;2023-11-19T08:32:50;21.53;;;5.80;;
2390;SDS011;22957;50.824;4.360;2023-11-19T08:35:16;22.80;;;4.30;;
2390;SDS011;22957;50.824;4.360;2023-11-19T08:37:41;30.03;;;6.70;;
2390;SDS011;22957;50.824;4.360;2023-11-19T08:40:07;34.53;;;5.07;;
2390;SDS011;22957;50.824;4.360;2023-11-19T08:42:33;23.20;;;4.43;;
2390;SDS011;22957;50.824;4.360;2023-11-19T08:44:59;28.63;;;3.73;;
2390;SDS011;22957;50.824;4.360;2023-11-19T08:47:24;32.43;;;5.63;;
2390;SDS011;22957;50.824;4.360;2023-11-19T08:49:53;22.23;;;4.27;;
2390;SDS011;22957;50.824;4.360;2023-11-19T08:52:18;18.70;;;4.77;;
2390;SDS011;22957;50.824;4.360;2023-11-19T08:54:44;27.43;;;3.97;;
2390;SDS011;22957;50.824;4.360;2023-11-19T08:57:10;29.50;;;5.73;;
2390;SDS011;22957;50.824;4.360;2023-11-19T08:59:35;15.70;;;3.90;;
2390;SDS011;22957;50.824;4.360;2023-11-19T09:02:03;21.30;;;4.60;;
2390;SDS011;22957;50.824;4.360;2023-11-19T09:04:29;21.53;;;4.10;;
2390;SDS011;22957;50.824;4.360;2023-11-19T09:06:54;22.57;;;4.93;;
2390;SDS011;22957;50.824;4.360;2023-11-19T09:09:22;19.80;;;4.73;;
2390;SDS011;22957;50.824;4.360;2023-11-19T09:11:48;27.37;;;4.23;;
2390;SDS011;22957;50.824;4.360;2023-11-19T09:14:14;26.33;;;5.43;;
2390;SDS011;22957;50.824;4.360;2023-11-19T09:16:39;22.20;;;4.83;;
2390;SDS011;22957;50.824;4.360;2023-11-19T09:19:05;26.03;;;3.70;;
2390;SDS011;22957;50.824;4.360;2023-11-19T09:21:30;18.87;;;4.50;;
2390;SDS011;22957;50.824;4.360;2023-11-19T09:23:56;19.83;;;4.10;;
2390;SDS011;22957;50.824;4.360;2023-11-19T09:26:22;17.70;;;3.87;;
2390;SDS011;22957;50.824;4.360;2023-11-19T09:28:47;14.83;;;3.67;;
2390;SDS011;22957;50.824;4.360;2023-11-19T09:31:16;17.70;;;5.80;;
2390;SDS011;22957;50.824;4.360;2023-11-19T09:33:42;19.37;;;5.53;;
2390;SDS011;22957;50.824;4.360;2023-11-19T09:36:08;26.00;;;5.13;;
2390;SDS011;22957;50.824;4.360;2023-11-19T09:38:35;20.80;;;5.00;;
2390;SDS011;22957;50.824;4.360;2023-11-19T09:41:04;14.37;;;6.27;;
2390;SDS011;22957;50.824;4.360;2023-11-19T09:43:34;21.53;;;4.57;;
2390;SDS011;22957;50.824;4.360;2023-11-19T09:46:03;16.70;;;5.53;;
2390;SDS011;22957;50.824;4.360;2023-11-19T09:48:35;27.30;;;5.30;;
2390;SDS011;22957;50.824;4.360;2023-11-19T09:51:05;24.53;;;5.77;;
2390;SDS011;22957;50.824;4.360;2023-11-19T09:53:32;24.03;;;5.53;;
2390;SDS011;22957;50.824;4.360;2023-11-19T09:56:01;35.50;;;9.00;;
2390;SDS011;22957;50.824;4.360;2023-11-19T09:58:30;23.37;;;7.73;;
2390;SDS011;22957;50.824;4.360;2023-11-19T10:00:56;22.57;;;7.97;;
2390;SDS011;22957;50.824;4.360;2023-11-19T10:03:24;27.07;;;10.30;;
2390;SDS011;22957;50.824;4.360;2023-11-19T10:05:51;20.80;;;7.13;;
2390;SDS011;22957;50.824;4.360;2023-11-19T10:08:19;18.17;;;6.57;;
2390;SDS011;22957;50.824;4.360;2023-11-19T10:10:44;20.07;;;9.50;;
2390;SDS011;22957;50.824;4.360;2023-11-19T10:13:10;30.60;;;7.20;;
2390;SDS011;22957;50.824;4.360;2023-11-19T10:15:36;24.90;;;9.00;;
2390;SDS011;22957;50.824;4.360;2023-11-19T10:18:02;28.47;;;10.67;;
2390;SDS011;22957;50.824;4.360;2023-11-19T10:20:37;21.83;;;6.80;;
2390;SDS011;22957;50.824;4.360;2023-11-19T10:23:05;36.97;;;11.80;;
2390;SDS011;22957;50.824;4.360;2023-11-19T10:25:30;25.60;;;7.00;;
2390;SDS011;22957;50.824;4.360;2023-11-19T10:27:58;25.57;;;5.93;;
2390;SDS011;22957;50.824;4.360;2023-11-19T10:30:25;21.33;;;7.10;;
2390;SDS011;22957;50.824;4.360;2023-11-19T10:33:12;20.93;;;5.67;;
2390;SDS011;22957;50.824;4.360;2023-11-19T10:35:51;28.43;;;6.00;;
2390;SDS011;22957;50.824;4.360;2023-11-19T10:38:21;17.60;;;5.30;;
2390;SDS011;22957;50.824;4.360;2023-11-19T10:40:48;20.93;;;5.40;;
2390;SDS011;22957;50.824;4.360;2023-11-19T10:43:15;18.03;;;4.90;;
2390;SDS011;22957;50.824;4.360;2023-11-19T10:45:42;14.13;;;4.07;;
2390;SDS011;22957;50.824;4.360;2023-11-19T10:48:08;14.40;;;5.27;;
2390;SDS011;22957;50.824;4.360;2023-11-19T10:50:34;14.37;;;5.40;;
2390;SDS011;22957;50.824;4.360;2023-11-19T10:53:01;22.47;;;5.00;;
2390;SDS011;22957;50.824;4.360;2023-11-19T10:55:28;24.40;;;6.40;;
2390;SDS011;22957;50.824;4.360;2023-11-19T10:57:59;20.97;;;5.87;;
2390;SDS011;22957;50.824;4.360;2023-11-19T11:00:30;19.67;;;4.80;;
2390;SDS011;22957;50.824;4.360;2023-11-19T11:03:15;25.73;;;5.43;;
2390;SDS011;22957;50.824;4.360;2023-11-19T11:05:49;20.90;;;4.00;;
2390;SDS011;22957;50.824;4.360;2023-11-19T11:08:16;24.03;;;5.33;;
2390;SDS011;22957;50.824;4.360;2023-11-19T11:11:03;17.53;;;5.20;;
2390;SDS011;22957;50.824;4.360;2023-11-19T11:13:29;25.67;;;4.03;;
2390;SDS011;22957;50.824;4.360;2023-11-19T11:15:56;17.47;;;5.30;;
2390;SDS011;22957;50.824;4.360;2023-11-19T11:18:25;22.73;;;6.70;;
2390;SDS011;22957;50.824;4.360;2023-11-19T11:20:52;27.30;;;5.07;;
2390;SDS011;22957;50.824;4.360;2023-11-19T11:28:35;19.97;;;5.53;;
2390;SDS011;22957;50.824;4.360;2023-11-19T11:39:21;31.77;;;7.10;;
2390;SDS011;22957;50.824;4.360;2023-11-19T11:41:56;23.10;;;8.37;;
2390;SDS011;22957;50.824;4.360;2023-11-19T11:50:16;26.73;;;6.40;;
2390;SDS011;22957;50.824;4.360;2023-11-19T11:55:24;18.00;;;6.77;;
2390;SDS011;22957;50.824;4.360;2023-11-19T11:57:50;21.13;;;10.40;;
2390;SDS011;22957;50.824;4.360;2023-11-19T12:03:05;30.77;;;10.70;;
2390;SDS011;22957;50.824;4.360;2023-11-19T12:05:32;28.87;;;10.60;;
2390;SDS011;22957;50.824;4.360;2023-11-19T12:08:02;22.20;;;6.87;;
2390;SDS011;22957;50.824;4.360;2023-11-19T12:10:52;28.10;;;9.07;;
2390;SDS011;22957;50.824;4.360;2023-11-19T12:13:19;21.13;;;6.83;;
2390;SDS011;22957;50.824;4.360;2023-11-19T12:18:23;18.97;;;6.60;;
2390;SDS011;22957;50.824;4.360;2023-11-19T12:20:53;21.50;;;7.37;;
2390;SDS011;22957;50.824;4.360;2023-11-19T12:23:19;20.90;;;7.17;;
2390;SDS011;22957;50.824;4.360;2023-11-19T12:25:45;33.90;;;16.57;;
2390;SDS011;22957;50.824;4.360;2023-11-19T12:28:12;19.43;;;9.03;;
2390;SDS011;22957;50.824;4.360;2023-11-19T12:30:38;24.80;;;6.90;;
2390;SDS011;22957;50.824;4.360;2023-11-19T12:33:07;16.40;;;7.47;;
2390;SDS011;22957;50.824;4.360;2023-11-19T12:35:38;23.90;;;7.13;;
2390;SDS011;22957;50.824;4.360;2023-11-19T12:38:04;23.53;;;6.50;;
2390;SDS011;22957;50.824;4.360;2023-11-19T12:40:30;19.47;;;8.03;;
2390;SDS011;22957;50.824;4.360;2023-11-19T12:42:55;25.43;;;8.67;;
2390;SDS011;22957;50.824;4.360;2023-11-19T12:45:21;21.97;;;6.50;;
2390;SDS011;22957;50.824;4.360;2023-11-19T12:47:48;20.00;;;7.17;;
2390;SDS011;22957;50.824;4.360;2023-11-19T12:50:15;21.60;;;7.73;;
2390;SDS011;22957;50.824;4.360;2023-11-19T12:52:43;19.53;;;5.07;;
2390;SDS011;22957;50.824;4.360;2023-11-19T12:55:29;24.20;;;5.17;;
2390;SDS011;22957;50.824;4.360;2023-11-19T12:57:55;25.77;;;7.40;;
2390;SDS011;22957;50.824;4.360;2023-11-19T13:00:22;22.33;;;6.47;;
2390;SDS011;22957;50.824;4.360;2023-11-19T13:02:49;23.13;;;7.43;;
2390;SDS011;22957;50.824;4.360;2023-11-19T13:05:33;22.87;;;7.17;;
2390;SDS011;22957;50.824;4.360;2023-11-19T13:08:02;24.80;;;7.43;;
2390;SDS011;22957;50.824;4.360;2023-11-19T13:10:33;24.57;;;5.80;;
2390;SDS011;22957;50.824;4.360;2023-11-19T13:13:14;29.53;;;8.23;;
2390;SDS011;22957;50.824;4.360;2023-11-19T13:15:40;17.50;;;8.10;;
2390;SDS011;22957;50.824;4.360;2023-11-19T13:18:05;31.23;;;9.80;;
2390;SDS011;22957;50.824;4.360;2023-11-19T13:20:31;23.30;;;5.57;;
2390;SDS011;22957;50.824;4.360;2023-11-19T13:22:58;22.10;;;10.03;;
2390;SDS011;22957;50.824;4.360;2023-11-19T13:25:25;31.23;;;7.30;;
2390;SDS011;22957;50.824;4.360;2023-11-19T13:27:52;25.70;;;7.40;;
2390;SDS011;22957;50.824;4.360;2023-11-19T13:30:18;27.80;;;12.57;;
2390;SDS011;22957;50.824;4.360;2023-11-19T13:32:45;20.83;;;6.87;;
2390;SDS011;22957;50.824;4.360;2023-11-19T13:35:11;24.50;;;5.70;;
2390;SDS011;22957;50.824;4.360;2023-11-19T13:37:37;20.20;;;5.80;;
2390;SDS011;22957;50.824;4.360;2023-11-19T13:40:03;27.90;;;9.70;;
2390;SDS011;22957;50.824;4.360;2023-11-19T13:42:30;19.00;;;6.00;;
2390;SDS011;22957;50.824;4.360;2023-11-19T13:44:55;18.57;;;5.73;;
2390;SDS011;22957;50.824;4.360;2023-11-19T13:47:21;24.43;;;6.60;;
2390;SDS011;22957;50.824;4.360;2023-11-19T13:49:48;24.97;;;6.50;;
2390;SDS011;22957;50.824;4.360;2023-11-19T13:52:14;20.33;;;5.60;;
2390;SDS011;22957;50.824;4.360;2023-11-19T13:54:40;22.30;;;9.30;;
2390;SDS011;22957;50.824;4.360;2023-11-19T13:57:06;28.43;;;7.40;;
2390;SDS011;22957;50.824;4.360;2023-11-19T13:59:31;29.13;;;9.77;;
2390;SDS011;22957;50.824;4.360;2023-11-19T14:02:00;19.20;;;7.23;;
2390;SDS011;22957;50.824;4.360;2023-11-19T14:04:25;27.63;;;7.43;;
2390;SDS011;22957;50.824;4.360;2023-11-19T14:06:51;28.90;;;7.30;;
2390;SDS011;22957;50.824;4.360;2023-11-19T14:09:17;20.80;;;6.20;;
2390;SDS011;22957;50.824;4.360;2023-11-19T14:11:43;24.67;;;6.37;;
2390;SDS011;22957;50.824;4.360;2023-11-19T14:14:08;30.63;;;6.67;;
2390;SDS011;22957;50.824;4.360;2023-11-19T14:16:34;20.37;;;6.63;;
2390;SDS011;22957;50.824;4.360;2023-11-19T14:19:00;29.13;;;8.37;;
2390;SDS011;22957;50.824;4.360;2023-11-19T14:21:25;18.30;;;6.47;;
2390;SDS011;22957;50.824;4.360;2023-11-19T14:23:51;19.40;;;5.97;;
2390;SDS011;22957;50.824;4.360;2023-11-19T14:26:17;24.90;;;5.37;;
2390;SDS011;22957;50.824;4.360;2023-11-19T14:28:43;25.17;;;4.87;;
2390;SDS011;22957;50.824;4.360;2023-11-19T14:31:09;25.00;;;6.17;;
2390;SDS011;22957;50.824;4.360;2023-11-19T14:33:34;20.53;;;5.27;;
2390;SDS011;22957;50.824;4.360;2023-11-19T14:36:01;25.60;;;6.70;;
2390;SDS011;22957;50.824;4.360;2023-11-19T14:38:27;18.83;;;5.47;;
2390;SDS011;22957;50.824;4.360;2023-11-19T14:40:52;22.23;;;6.17;;
2390;SDS011;22957;50.824;4.360;2023-11-19T14:43:18;28.63;;;6.90;;
2390;SDS011;22957;50.824;4.360;2023-11-19T14:45:43;35.80;;;7.33;;
2390;SDS011;22957;50.824;4.360;2023-11-19T14:48:09;21.27;;;7.10;;
2390;SDS011;22957;50.824;4.360;2023-11-19T14:50:35;27.13;;;7.07;;
2390;SDS011;22957;50.824;4.360;2023-11-19T14:53:00;17.20;;;6.07;;
2390;SDS011;22957;50.824;4.360;2023-11-19T14:55:26;23.93;;;5.90;;
2390;SDS011;22957;50.824;4.360;2023-11-19T14:57:52;23.77;;;6.53;;
2390;SDS011;22957;50.824;4.360;2023-11-19T15:00:18;18.97;;;6.57;;
2390;SDS011;22957;50.824;4.360;2023-11-19T15:02:44;23.03;;;7.40;;
2390;SDS011;22957;50.824;4.360;2023-11-19T15:05:10;32.53;;;10.57;;
2390;SDS011;22957;50.824;4.360;2023-11-19T15:07:39;20.10;;;6.97;;
2390;SDS011;22957;50.824;4.360;2023-11-19T15:10:07;26.93;;;7.77;;
2390;SDS011;22957;50.824;4.360;2023-11-19T15:12:37;28.03;;;8.30;;
2390;SDS011;22957;50.824;4.360;2023-11-19T15:15:08;29.97;;;7.20;;
2390;SDS011;22957;50.824;4.360;2023-11-19T15:17:35;30.40;;;8.80;;